Time;durP1;ratioP1;P1;durP2;ratioP2;P2;SDS_P1;SDS_P2;PMS_P1;PMS_P2;Temp;Humidity;BMP_temperature;BMP_pressure;BME280_temperature;BME280_humidity;BME280_pressure;Samples;Min_cycle;Max_cycle;Signal;HPM_P1;HPM_P2
2023/09/12 00:01:47;;;;;;;;;8.67;7.67;;;;;;;;5100435;27;45682;-71
2023/09/12 00:04:12;;;;;;;;;8.00;7.00;;;;;;;;5100879;27;45153;-72
2023/09/12 00:06:37;;;;;;;;;8.33;7.67;;;;;;;;5100692;27;45517;-72
2023/09/12 00:09:05;;;;;;;;;7.00;7.00;;;;;;;;5100622;27;45506;-72
2023/09/12 00:11:30;;;;;;;;;7.67;7.67;;;;;;;;5091297;27;45322;-72
2023/09/12 00:13:55;;;;;;;;;9.67;8.00;;;;;;;;5059748;28;45356;-72
2023/09/12 00:16:21;;;;;;;;;7.67;7.00;;;;;;;;5059837;28;45337;-72
2023/09/12 00:18:46;;;;;;;;;5.67;5.67;;;;;;;;5058637;28;45342;-72
2023/09/12 00:21:11;;;;;;;;;8.00;8.00;;;;;;;;5059689;28;45412;-73
2023/09/12 00:23:36;;;;;;;;;6.33;6.33;;;;;;;;5059693;28;45360;-72
2023/09/12 00:26:02;;;;;;;;;8.00;8.00;;;;;;;;5059770;28;45236;-71
2023/09/12 00:28:27;;;;;;;;;8.33;7.67;;;;;;;;5062139;27;45415;-72
2023/09/12 00:30:52;;;;;;;;;5.00;5.00;;;;;;;;5099010;27;45416;-72
2023/09/12 00:33:17;;;;;;;;;6.00;6.00;;;;;;;;5098687;27;45370;-71
2023/09/12 00:35:43;;;;;;;;;5.33;5.33;;;;;;;;5085360;27;45602;-73
2023/09/12 00:38:08;;;;;;;;;7.67;6.67;;;;;;;;5064855;28;45380;-72
2023/09/12 00:40:34;;;;;;;;;7.33;7.00;;;;;;;;5058644;28;45418;-72
2023/09/12 00:42:59;;;;;;;;;10.00;9.00;;;;;;;;5058075;28;45721;-72
2023/09/12 00:45:24;;;;;;;;;6.00;6.00;;;;;;;;5059241;28;45352;-71
2023/09/12 00:47:51;;;;;;;;;6.33;5.67;;;;;;;;5059117;28;45387;-72
2023/09/12 00:50:16;;;;;;;;;8.00;8.00;;;;;;;;5059245;28;46464;-72
2023/09/12 00:52:42;;;;;;;;;8.00;8.00;;;;;;;;5059384;28;45232;-72
2023/09/12 00:55:07;;;;;;;;;8.00;8.00;;;;;;;;5059303;28;45200;-72
2023/09/12 00:57:34;;;;;;;;;8.00;8.00;;;;;;;;5059227;28;45227;-71
2023/09/12 01:00:01;;;;;;;;;10.00;10.00;;;;;;;;5059181;28;46309;-72
2023/09/12 01:02:26;;;;;;;;;7.67;7.33;;;;;;;;5059242;28;45307;-72
2023/09/12 01:04:51;;;;;;;;;9.33;9.33;;;;;;;;5062125;28;45318;-71
2023/09/12 01:07:17;;;;;;;;;8.33;7.00;;;;;;;;5062710;28;45364;-72
2023/09/12 01:09:42;;;;;;;;;8.00;7.00;;;;;;;;5062701;28;45424;-72
2023/09/12 01:12:08;;;;;;;;;10.00;9.33;;;;;;;;5062545;28;45426;-72
2023/09/12 01:14:33;;;;;;;;;8.67;7.00;;;;;;;;5062856;28;45384;-72
2023/09/12 01:16:59;;;;;;;;;9.33;8.00;;;;;;;;5062564;28;45367;-72
2023/09/12 01:19:24;;;;;;;;;9.33;9.33;;;;;;;;5062509;28;45329;-71
2023/09/12 01:22:08;;;;;;;;;8.67;8.33;;;;;;;;5062465;28;45285;-72
2023/09/12 01:24:45;;;;;;;;;8.33;8.33;;;;;;;;5062668;28;45341;-72
2023/09/12 01:27:10;;;;;;;;;10.33;8.00;;;;;;;;5062248;28;45308;-72
2023/09/12 01:29:36;;;;;;;;;8.50;8.50;;;;;;;;5084359;27;45420;-72
2023/09/12 01:32:01;;;;;;;;;8.00;8.00;;;;;;;;5103283;27;45307;-72
2023/09/12 01:34:26;;;;;;;;;9.33;9.33;;;;;;;;5103234;27;45315;-72
2023/09/12 01:36:51;;;;;;;;;11.00;11.00;;;;;;;;5103035;27;45233;-72
2023/09/12 01:39:17;;;;;;;;;9.00;9.00;;;;;;;;5103004;27;45295;-72
2023/09/12 01:41:45;;;;;;;;;9.33;9.33;;;;;;;;5102962;27;45266;-72
2023/09/12 01:44:11;;;;;;;;;11.00;10.33;;;;;;;;5103036;27;45228;-72
2023/09/12 01:46:37;;;;;;;;;10.00;10.00;;;;;;;;5102812;27;45415;-72
2023/09/12 01:49:04;;;;;;;;;10.33;10.33;;;;;;;;5102891;27;46543;-71
2023/09/12 01:51:30;;;;;;;;;12.00;11.67;;;;;;;;5102684;27;45390;-71
2023/09/12 01:53:55;;;;;;;;;13.00;13.00;;;;;;;;5102943;27;45488;-72
2023/09/12 01:56:21;;;;;;;;;13.67;12.00;;;;;;;;5102403;27;45477;-72
2023/09/12 01:58:47;;;;;;;;;16.33;14.00;;;;;;;;5102606;27;45165;-72
2023/09/12 02:01:12;;;;;;;;;9.67;9.67;;;;;;;;5102784;27;45203;-72
2023/09/12 02:03:37;;;;;;;;;8.33;8.33;;;;;;;;5102822;27;45195;-72
2023/09/12 02:06:02;;;;;;;;;14.33;11.00;;;;;;;;5102560;27;45271;-71
2023/09/12 02:08:28;;;;;;;;;11.67;11.33;;;;;;;;5102477;27;45455;-72
2023/09/12 02:10:53;;;;;;;;;9.00;9.00;;;;;;;;5102421;27;45264;-72
2023/09/12 02:13:18;;;;;;;;;10.00;10.00;;;;;;;;5102679;27;45222;-72
2023/09/12 02:15:43;;;;;;;;;12.33;11.00;;;;;;;;5101978;27;45231;-71
2023/09/12 02:18:09;;;;;;;;;14.67;13.33;;;;;;;;5092014;27;46439;-72
2023/09/12 02:20:37;;;;;;;;;10.33;10.33;;;;;;;;5081875;28;45200;-72
2023/09/12 02:23:03;;;;;;;;;11.00;10.67;;;;;;;;5082079;28;45402;-72
2023/09/12 02:25:28;;;;;;;;;12.67;12.67;;;;;;;;5081545;28;45460;-72
2023/09/12 02:27:53;;;;;;;;;16.00;15.33;;;;;;;;5081615;28;46045;-72
2023/09/12 02:30:18;;;;;;;;;16.67;15.00;;;;;;;;5098682;27;45267;-71
2023/09/12 02:32:43;;;;;;;;;15.00;14.67;;;;;;;;5102470;27;45360;-72
2023/09/12 02:35:09;;;;;;;;;15.00;14.67;;;;;;;;5102128;27;45528;-72
2023/09/12 02:37:34;;;;;;;;;14.33;13.00;;;;;;;;5102092;27;45979;-72
2023/09/12 02:40:00;;;;;;;;;14.67;12.00;;;;;;;;5101959;27;45332;-71
2023/09/12 02:42:25;;;;;;;;;13.67;12.00;;;;;;;;5083648;27;45251;-71
2023/09/12 02:44:50;;;;;;;;;16.00;15.00;;;;;;;;5102034;27;45426;-72
2023/09/12 02:47:15;;;;;;;;;15.67;15.67;;;;;;;;5101850;27;46610;-72
2023/09/12 02:49:40;;;;;;;;;17.67;15.00;;;;;;;;5101902;27;45322;-72
2023/09/12 02:52:06;;;;;;;;;14.67;13.00;;;;;;;;5101963;27;45307;-72
2023/09/12 02:54:31;;;;;;;;;13.67;12.00;;;;;;;;5101871;27;45596;-71
2023/09/12 02:56:56;;;;;;;;;15.67;14.67;;;;;;;;5101486;27;46396;-72
2023/09/12 02:59:21;;;;;;;;;16.00;14.67;;;;;;;;5101779;27;45209;-72
2023/09/12 03:01:46;;;;;;;;;17.00;17.00;;;;;;;;5101984;27;45211;-71
2023/09/12 03:04:11;;;;;;;;;16.33;13.67;;;;;;;;5101675;27;45554;-72
2023/09/12 03:06:37;;;;;;;;;15.33;15.33;;;;;;;;5101511;27;46425;-71
2023/09/12 03:09:03;;;;;;;;;15.00;15.00;;;;;;;;5101677;27;45216;-72
2023/09/12 03:11:28;;;;;;;;;13.67;13.67;;;;;;;;5101542;27;45491;-72
2023/09/12 03:13:53;;;;;;;;;16.67;16.00;;;;;;;;5101610;27;45621;-72
2023/09/12 03:16:18;;;;;;;;;14.67;14.67;;;;;;;;5101470;27;45694;-71
2023/09/12 03:18:43;;;;;;;;;20.00;18.33;;;;;;;;5101472;27;45310;-71
2023/09/12 03:21:09;;;;;;;;;17.67;17.33;;;;;;;;5101548;27;45280;-72
2023/09/12 03:23:34;;;;;;;;;18.33;17.00;;;;;;;;5101437;27;45187;-71
2023/09/12 03:26:00;;;;;;;;;20.33;18.00;;;;;;;;5100097;27;45231;-71
2023/09/12 03:28:25;;;;;;;;;15.00;14.33;;;;;;;;5100062;27;45458;-72
2023/09/12 03:30:50;;;;;;;;;18.00;17.67;;;;;;;;5080860;28;45458;-72
2023/09/12 03:33:15;;;;;;;;;18.67;17.67;;;;;;;;5080804;28;45292;-71
2023/09/12 03:35:42;;;;;;;;;19.67;17.33;;;;;;;;5080626;28;45291;-72
2023/09/12 03:38:08;;;;;;;;;17.00;17.00;;;;;;;;5080644;28;45422;-72
2023/09/12 03:40:33;;;;;;;;;17.33;17.00;;;;;;;;5080487;28;45490;-72
2023/09/12 03:42:58;;;;;;;;;14.67;14.67;;;;;;;;5080272;28;45276;-72
2023/09/12 03:45:23;;;;;;;;;21.67;19.67;;;;;;;;5080628;28;45284;-72
2023/09/12 03:47:49;;;;;;;;;18.00;17.67;;;;;;;;5080459;28;45356;-72
2023/09/12 03:50:14;;;;;;;;;18.00;16.67;;;;;;;;5080719;28;45456;-71
2023/09/12 03:52:39;;;;;;;;;22.33;19.67;;;;;;;;5080372;28;45488;-72
2023/09/12 03:55:04;;;;;;;;;17.33;17.00;;;;;;;;5080148;28;45396;-72
2023/09/12 03:57:30;;;;;;;;;18.67;18.67;;;;;;;;5080254;28;45337;-72
2023/09/12 03:59:55;;;;;;;;;19.67;17.67;;;;;;;;5080609;28;45272;-72
2023/09/12 04:02:20;;;;;;;;;17.00;17.00;;;;;;;;5080228;28;45280;-71
2023/09/12 04:04:45;;;;;;;;;19.00;19.00;;;;;;;;5080284;28;45283;-72
2023/09/12 04:07:10;;;;;;;;;18.67;18.67;;;;;;;;5080059;28;45351;-72
2023/09/12 04:09:36;;;;;;;;;15.67;15.67;;;;;;;;5080386;28;45225;-71
2023/09/12 04:12:01;;;;;;;;;18.00;16.67;;;;;;;;5080048;28;45247;-71
2023/09/12 04:14:26;;;;;;;;;18.33;17.67;;;;;;;;5080024;28;45227;-72
2023/09/12 04:16:52;;;;;;;;;20.33;20.00;;;;;;;;5080253;28;45149;-71
2023/09/12 04:19:17;;;;;;;;;18.00;18.00;;;;;;;;5080230;28;45485;-72
2023/09/12 04:21:42;;;;;;;;;25.33;23.67;;;;;;;;5079993;28;45384;-71
2023/09/12 04:24:07;;;;;;;;;19.33;19.33;;;;;;;;5079967;28;46439;-71
2023/09/12 04:26:33;;;;;;;;;21.33;19.67;;;;;;;;5079804;28;45229;-71
2023/09/12 04:28:58;;;;;;;;;17.33;16.00;;;;;;;;5085754;27;45467;-72
2023/09/12 04:31:23;;;;;;;;;19.33;18.33;;;;;;;;5100398;27;45387;-72
2023/09/12 04:33:51;;;;;;;;;25.33;24.67;;;;;;;;5100267;27;46033;-71
2023/09/12 04:36:16;;;;;;;;;24.33;22.33;;;;;;;;5099749;27;45420;-72
2023/09/12 04:38:41;;;;;;;;;21.00;18.33;;;;;;;;5099079;27;45343;-72
2023/09/12 04:41:06;;;;;;;;;26.00;25.33;;;;;;;;5078900;28;45299;-73
2023/09/12 04:43:32;;;;;;;;;25.67;24.00;;;;;;;;5078867;28;45652;-72
2023/09/12 04:45:57;;;;;;;;;22.67;22.33;;;;;;;;5079408;28;45394;-73
2023/09/12 04:48:23;;;;;;;;;22.00;22.00;;;;;;;;5079315;28;45461;-74
2023/09/12 04:50:48;;;;;;;;;24.67;23.67;;;;;;;;5079043;28;45390;-72
2023/09/12 04:53:13;;;;;;;;;24.00;22.33;;;;;;;;5079207;28;45339;-73
2023/09/12 04:55:38;;;;;;;;;26.67;26.67;;;;;;;;5079422;28;45305;-72
2023/09/12 04:58:04;;;;;;;;;24.33;23.67;;;;;;;;5061267;28;45233;-74
2023/09/12 05:00:29;;;;;;;;;26.33;25.00;;;;;;;;5079531;28;45367;-73
2023/09/12 05:02:55;;;;;;;;;27.00;24.67;;;;;;;;5079428;28;46115;-74
2023/09/12 05:05:20;;;;;;;;;21.67;21.67;;;;;;;;5079477;28;45220;-73
2023/09/12 05:07:45;;;;;;;;;25.00;24.67;;;;;;;;5079244;28;45327;-72
2023/09/12 05:10:10;;;;;;;;;24.33;22.00;;;;;;;;5079185;28;45296;-72
2023/09/12 05:12:36;;;;;;;;;23.00;22.33;;;;;;;;5045574;28;47688;-72
2023/09/12 05:15:01;;;;;;;;;31.33;27.33;;;;;;;;5041015;28;45282;-72
2023/09/12 05:17:27;;;;;;;;;25.00;23.33;;;;;;;;5064499;28;45232;-74
2023/09/12 05:19:52;;;;;;;;;25.67;25.33;;;;;;;;5059002;28;45287;-74
2023/09/12 05:22:17;;;;;;;;;26.33;26.33;;;;;;;;5058509;28;45366;-76
2023/09/12 05:24:42;;;;;;;;;29.33;25.33;;;;;;;;5058402;28;45212;-75
2023/09/12 05:27:07;;;;;;;;;25.33;24.33;;;;;;;;5058832;28;45542;-75
2023/09/12 05:29:32;;;;;;;;;28.67;26.67;;;;;;;;5080083;27;45554;-75
2023/09/12 05:31:58;;;;;;;;;31.33;28.00;;;;;;;;5098741;27;45269;-78
2023/09/12 05:34:23;;;;;;;;;28.00;26.00;;;;;;;;5099361;27;45136;-76
2023/09/12 05:36:48;;;;;;;;;30.00;28.33;;;;;;;;5099402;27;45485;-77
2023/09/12 05:39:13;;;;;;;;;22.67;20.33;;;;;;;;5099441;27;45378;-76
2023/09/12 05:41:39;;;;;;;;;31.67;27.33;;;;;;;;5099192;27;45430;-76
2023/09/12 05:44:04;;;;;;;;;28.67;25.67;;;;;;;;5099303;27;45144;-76
2023/09/12 05:46:29;;;;;;;;;31.33;29.67;;;;;;;;5099369;27;45266;-76
2023/09/12 05:48:54;;;;;;;;;28.00;26.33;;;;;;;;5099345;27;45223;-76
2023/09/12 05:51:20;;;;;;;;;25.33;24.33;;;;;;;;5102545;27;45436;-76
2023/09/12 05:53:45;;;;;;;;;26.33;25.67;;;;;;;;5102928;27;45610;-75
2023/09/12 05:56:10;;;;;;;;;25.00;24.67;;;;;;;;5102748;27;45341;-75
2023/09/12 05:58:35;;;;;;;;;22.67;20.33;;;;;;;;5102436;27;45241;-76
2023/09/12 06:01:01;;;;;;;;;27.00;25.33;;;;;;;;5102619;27;45990;-76
2023/09/12 06:03:26;;;;;;;;;14.67;13.33;;;;;;;;5102706;27;45256;-76
2023/09/12 06:05:51;;;;;;;;;28.67;26.00;;;;;;;;5102751;27;45308;-75
2023/09/12 06:08:17;;;;;;;;;24.67;23.67;;;;;;;;5102511;27;45332;-76
2023/09/12 06:10:42;;;;;;;;;26.67;24.00;;;;;;;;5102265;27;45320;-75
2023/09/12 06:13:07;;;;;;;;;26.67;21.67;;;;;;;;5102473;27;45354;-78
2023/09/12 06:15:33;;;;;;;;;30.33;27.33;;;;;;;;5102734;27;45251;-75
2023/09/12 06:17:58;;;;;;;;;25.00;23.67;;;;;;;;5102384;27;45315;-75
2023/09/12 06:20:23;;;;;;;;;22.33;22.33;;;;;;;;5083842;27;47326;-76
2023/09/12 06:22:49;;;;;;;;;19.67;19.67;;;;;;;;5102332;27;45298;-75
2023/09/12 06:25:14;;;;;;;;;22.67;22.67;;;;;;;;5102323;27;45358;-78
2023/09/12 06:27:39;;;;;;;;;25.33;23.67;;;;;;;;5102154;27;45375;-78
2023/09/12 06:30:05;;;;;;;;;32.67;30.00;;;;;;;;5087184;27;46053;-74
2023/09/12 06:32:30;;;;;;;;;21.67;21.00;;;;;;;;5081479;28;45310;-74
2023/09/12 06:34:55;;;;;;;;;22.33;21.33;;;;;;;;5081250;28;45218;-74
2023/09/12 06:37:20;;;;;;;;;23.67;21.00;;;;;;;;5081302;28;45975;-74
2023/09/12 06:39:49;;;;;;;;;21.67;21.00;;;;;;;;5081344;28;45471;-74
2023/09/12 06:42:14;;;;;;;;;27.67;24.67;;;;;;;;5081544;28;45279;-75
2023/09/12 06:44:39;;;;;;;;;24.33;23.33;;;;;;;;5081316;28;45251;-75
2023/09/12 06:47:04;;;;;;;;;25.00;23.67;;;;;;;;5081600;28;45304;-74
2023/09/12 06:49:32;;;;;;;;;24.67;23.67;;;;;;;;5081043;28;46044;-74
2023/09/12 06:51:57;;;;;;;;;24.67;24.67;;;;;;;;5081057;28;45471;-73
2023/09/12 06:54:22;;;;;;;;;21.33;21.33;;;;;;;;5081425;28;45431;-74
2023/09/12 06:56:47;;;;;;;;;27.33;26.67;;;;;;;;5081066;28;45432;-74
2023/09/12 06:59:13;;;;;;;;;28.00;26.33;;;;;;;;5080561;28;45386;-75
2023/09/12 07:01:38;;;;;;;;;27.67;26.33;;;;;;;;5058711;28;45360;-74
2023/09/12 07:04:03;;;;;;;;;26.00;26.00;;;;;;;;5064370;28;45444;-73
2023/09/12 07:06:28;;;;;;;;;23.67;23.33;;;;;;;;5081284;28;45499;-75
2023/09/12 07:08:54;;;;;;;;;24.67;24.67;;;;;;;;5079201;28;45480;-77
2023/09/12 07:11:19;;;;;;;;;27.00;24.67;;;;;;;;5065276;28;45388;-73
2023/09/12 07:13:44;;;;;;;;;23.33;23.33;;;;;;;;5071638;28;45378;-77
2023/09/12 07:16:10;;;;;;;;;26.00;23.67;;;;;;;;5061131;28;45415;-75
2023/09/12 07:18:35;;;;;;;;;23.67;21.00;;;;;;;;5060676;28;45570;-78
2023/09/12 07:21:01;;;;;;;;;22.33;22.00;;;;;;;;5062585;28;45193;-74
2023/09/12 07:23:27;;;;;;;;;21.33;18.33;;;;;;;;5061275;28;45237;-75
2023/09/12 07:25:54;;;;;;;;;22.67;22.67;;;;;;;;5060254;28;45389;-74
2023/09/12 07:28:19;;;;;;;;;24.00;21.00;;;;;;;;5061007;27;46158;-74
2023/09/12 07:30:47;;;;;;;;;18.00;17.33;;;;;;;;5101179;27;45191;-76
2023/09/12 07:33:12;;;;;;;;;21.67;20.67;;;;;;;;5101537;27;45331;-75
2023/09/12 07:35:38;;;;;;;;;21.00;19.33;;;;;;;;5101222;27;45380;-75
2023/09/12 07:38:03;;;;;;;;;16.67;16.67;;;;;;;;5101147;27;45354;-74
2023/09/12 07:40:28;;;;;;;;;22.33;21.00;;;;;;;;5101213;27;45430;-74
2023/09/12 07:42:54;;;;;;;;;19.00;18.00;;;;;;;;5101333;27;45370;-74
2023/09/12 07:45:20;;;;;;;;;18.00;18.00;;;;;;;;5101556;27;45323;-75
2023/09/12 07:47:45;;;;;;;;;15.00;14.33;;;;;;;;5101277;27;45956;-75
2023/09/12 07:50:10;;;;;;;;;18.00;18.00;;;;;;;;5101326;27;45247;-76
2023/09/12 07:52:35;;;;;;;;;18.67;17.67;;;;;;;;5094174;27;45501;-75
2023/09/12 07:55:02;;;;;;;;;16.33;15.00;;;;;;;;5100277;27;45624;-76
2023/09/12 07:57:31;;;;;;;;;16.67;16.67;;;;;;;;5100387;27;46111;-74
2023/09/12 07:59:56;;;;;;;;;16.33;16.33;;;;;;;;5100448;27;45435;-75
2023/09/12 08:02:21;;;;;;;;;17.33;16.33;;;;;;;;5100913;27;45373;-73
2023/09/12 08:04:48;;;;;;;;;19.33;19.00;;;;;;;;5076351;27;45465;-76
2023/09/12 08:07:13;;;;;;;;;19.67;19.33;;;;;;;;5068090;28;46382;-75
2023/09/12 08:09:55;;;;;;;;;20.33;18.00;;;;;;;;5068980;28;45594;-75
2023/09/12 08:12:21;;;;;;;;;17.33;17.33;;;;;;;;5060377;28;46025;-76
2023/09/12 08:14:46;;;;;;;;;17.67;17.67;;;;;;;;5068979;28;45474;-74
2023/09/12 08:17:12;;;;;;;;;21.00;19.67;;;;;;;;5068970;27;46315;-75
2023/09/12 08:19:37;;;;;;;;;19.00;18.67;;;;;;;;5078965;28;45344;-74
2023/09/12 08:22:03;;;;;;;;;15.67;15.33;;;;;;;;5074633;27;45324;-74
2023/09/12 08:24:28;;;;;;;;;19.67;17.00;;;;;;;;5051063;28;45584;-75
2023/09/12 08:26:54;;;;;;;;;15.33;15.33;;;;;;;;5067096;28;45505;-74
2023/09/12 08:29:19;;;;;;;;;16.67;16.67;;;;;;;;5062768;28;45440;-74
2023/09/12 08:31:46;;;;;;;;;17.00;17.00;;;;;;;;5077542;27;45328;-74
2023/09/12 08:34:12;;;;;;;;;19.00;18.00;;;;;;;;5078946;28;45269;-75
2023/09/12 08:36:37;;;;;;;;;14.00;14.00;;;;;;;;5076388;27;47617;-74
2023/09/12 08:39:02;;;;;;;;;16.33;16.33;;;;;;;;5069712;28;45340;-75
2023/09/12 08:41:28;;;;;;;;;15.00;15.00;;;;;;;;5078178;27;45835;-77
2023/09/12 08:43:53;;;;;;;;;18.67;18.67;;;;;;;;5078965;28;45241;-74
2023/09/12 08:46:20;;;;;;;;;17.00;17.00;;;;;;;;5071455;27;45317;-75
2023/09/12 08:48:45;;;;;;;;;22.00;21.00;;;;;;;;5050231;28;45455;-75
2023/09/12 08:51:12;;;;;;;;;17.00;16.33;;;;;;;;5070378;27;45365;-74
2023/09/12 08:53:37;;;;;;;;;12.00;12.00;;;;;;;;5078529;28;45352;-74
2023/09/12 08:56:03;;;;;;;;;18.33;16.67;;;;;;;;5077879;28;45408;-74
2023/09/12 08:58:30;;;;;;;;;13.33;13.33;;;;;;;;5050032;28;45415;-75
2023/09/12 09:00:56;;;;;;;;;17.00;13.67;;;;;;;;5067554;28;45454;-75
2023/09/12 09:03:22;;;;;;;;;18.67;17.67;;;;;;;;5067676;28;45385;-75
2023/09/12 09:05:48;;;;;;;;;28.33;27.33;;;;;;;;5042823;28;47330;-74
2023/09/12 09:08:14;;;;;;;;;41.67;32.67;;;;;;;;5058586;28;45307;-74
2023/09/12 09:10:54;;;;;;;;;24.33;23.00;;;;;;;;5057891;28;45559;-75
2023/09/12 09:13:19;;;;;;;;;21.67;17.67;;;;;;;;5057035;28;45332;-74
2023/09/12 09:15:44;;;;;;;;;15.00;15.00;;;;;;;;5058038;28;45280;-74
2023/09/12 09:18:10;;;;;;;;;19.00;19.00;;;;;;;;5058482;28;45396;-75
2023/09/12 09:20:37;;;;;;;;;19.00;19.00;;;;;;;;5058265;28;45622;-75
2023/09/12 09:23:07;;;;;;;;;18.33;18.00;;;;;;;;5074738;28;45663;-74
2023/09/12 09:25:32;;;;;;;;;27.00;25.67;;;;;;;;5080496;28;46120;-74
2023/09/12 09:27:58;;;;;;;;;23.67;23.67;;;;;;;;5081967;28;45265;-75
2023/09/12 09:30:39;;;;;;;;;20.00;20.00;;;;;;;;5100100;27;45275;-76
2023/09/12 09:33:04;;;;;;;;;61.75;52.00;;;;;;;;5080116;27;45515;-74
2023/09/12 09:35:30;;;;;;;;;43.00;36.67;;;;;;;;5060971;28;45658;-76
2023/09/12 09:37:56;;;;;;;;;38.33;33.67;;;;;;;;5061319;28;45508;-74
2023/09/12 09:40:21;;;;;;;;;18.00;17.33;;;;;;;;5080585;28;45444;-76
2023/09/12 09:42:47;;;;;;;;;17.33;15.00;;;;;;;;5078435;28;45852;-76
2023/09/12 09:45:12;;;;;;;;;18.33;17.33;;;;;;;;5062831;28;45230;-74
2023/09/12 09:47:37;;;;;;;;;15.00;14.67;;;;;;;;5061525;28;45394;-74
2023/09/12 09:50:03;;;;;;;;;13.33;13.33;;;;;;;;5061748;28;45375;-75
2023/09/12 09:52:28;;;;;;;;;14.00;13.00;;;;;;;;5042984;28;45386;-75
2023/09/12 09:54:53;;;;;;;;;13.33;13.33;;;;;;;;5060994;28;46225;-74
2023/09/12 09:57:18;;;;;;;;;21.67;20.33;;;;;;;;5061775;28;45371;-78
2023/09/12 09:59:48;;;;;;;;;35.33;29.33;;;;;;;;5078949;28;45351;-77
2023/09/12 10:02:18;;;;;;;;;18.00;17.00;;;;;;;;5063583;28;47384;-77
2023/09/12 10:04:43;;;;;;;;;15.00;15.00;;;;;;;;5081131;28;45401;-77
2023/09/12 10:07:09;;;;;;;;;14.00;13.00;;;;;;;;5065080;28;45434;-77
2023/09/12 10:09:34;;;;;;;;;16.33;15.00;;;;;;;;5061082;28;45647;-75
2023/09/12 10:12:00;;;;;;;;;14.67;14.67;;;;;;;;5061018;28;45566;-75
2023/09/12 10:14:26;;;;;;;;;17.33;16.00;;;;;;;;5060962;28;45238;-75
2023/09/12 10:16:55;;;;;;;;;15.33;15.00;;;;;;;;5067405;28;45331;-76
2023/09/12 10:19:32;;;;;;;;;18.33;15.00;;;;;;;;5080666;28;45501;-75
2023/09/12 10:22:17;;;;;;;;;19.33;17.33;;;;;;;;5079453;28;45701;-76
2023/09/12 10:24:43;;;;;;;;;16.33;14.00;;;;;;;;5081486;28;45342;-77
2023/09/12 10:27:09;;;;;;;;;17.00;16.00;;;;;;;;5081743;28;45417;-76
2023/09/12 10:29:35;;;;;;;;;15.00;15.00;;;;;;;;5092758;27;45309;-76
2023/09/12 10:32:00;;;;;;;;;17.33;16.33;;;;;;;;5102065;27;45334;-75
2023/09/12 10:34:26;;;;;;;;;18.00;16.67;;;;;;;;5101940;27;45616;-75
2023/09/12 10:36:52;;;;;;;;;20.67;19.67;;;;;;;;5081110;27;45222;-75
2023/09/12 10:39:18;;;;;;;;;16.00;15.00;;;;;;;;5080622;28;45348;-76
2023/09/12 10:41:44;;;;;;;;;17.67;17.67;;;;;;;;5080030;28;45342;-74
2023/09/12 10:44:11;;;;;;;;;16.00;16.00;;;;;;;;5079006;28;45441;-80
2023/09/12 10:46:39;;;;;;;;;19.33;18.00;;;;;;;;5073200;28;45477;-75
2023/09/12 10:49:08;;;;;;;;;19.00;18.67;;;;;;;;5065130;27;46001;-75
2023/09/12 10:51:44;;;;;;;;;20.00;19.33;;;;;;;;5070292;28;45606;-76
2023/09/12 10:54:13;;;;;;;;;21.33;18.33;;;;;;;;5079089;27;45453;-75
2023/09/12 10:56:38;;;;;;;;;21.00;21.00;;;;;;;;5078593;28;45418;-75
2023/09/12 10:59:03;;;;;;;;;21.67;19.33;;;;;;;;5074237;27;45512;-75
2023/09/12 11:01:29;;;;;;;;;22.00;21.00;;;;;;;;5071330;28;45361;-74
2023/09/12 11:03:54;;;;;;;;;19.00;19.00;;;;;;;;5075998;27;46016;-74
2023/09/12 11:06:21;;;;;;;;;21.33;20.00;;;;;;;;5067877;28;46180;-75
2023/09/12 11:09:06;;;;;;;;;24.00;22.00;;;;;;;;5068848;27;45563;-73
2023/09/12 11:11:32;;;;;;;;;22.33;21.33;;;;;;;;5079003;27;45675;-74
2023/09/12 11:14:04;;;;;;;;;22.00;21.00;;;;;;;;5072559;27;47337;-74
2023/09/12 11:16:29;;;;;;;;;19.33;18.00;;;;;;;;5097965;27;45443;-74
2023/09/12 11:19:12;;;;;;;;;22.33;21.00;;;;;;;;5065107;28;45398;-73
2023/09/12 11:21:37;;;;;;;;;20.00;19.00;;;;;;;;5069508;28;45367;-72
2023/09/12 11:24:03;;;;;;;;;22.33;21.67;;;;;;;;5070120;27;46283;-73
2023/09/12 11:26:29;;;;;;;;;20.33;18.33;;;;;;;;5070071;27;45558;-73
2023/09/12 11:28:55;;;;;;;;;21.67;19.67;;;;;;;;5065247;27;45470;-72
2023/09/12 11:31:26;;;;;;;;;22.33;21.67;;;;;;;;5080514;27;45553;-73
2023/09/12 11:33:52;;;;;;;;;20.33;20.33;;;;;;;;5092488;27;45398;-72
2023/09/12 11:36:18;;;;;;;;;21.00;20.33;;;;;;;;5079028;27;45710;-72
2023/09/12 11:38:43;;;;;;;;;20.33;20.00;;;;;;;;5076588;27;45463;-73
2023/09/12 11:41:08;;;;;;;;;18.33;17.67;;;;;;;;5078461;28;45599;-72
2023/09/12 11:43:37;;;;;;;;;20.00;18.33;;;;;;;;5076366;27;45467;-73
2023/09/12 11:46:03;;;;;;;;;24.00;24.00;;;;;;;;5054452;28;45411;-72
2023/09/12 11:48:29;;;;;;;;;17.67;17.33;;;;;;;;5069121;27;45801;-74
2023/09/12 11:50:56;;;;;;;;;19.67;18.00;;;;;;;;5060958;28;45677;-73
2023/09/12 11:53:26;;;;;;;;;16.67;16.33;;;;;;;;5065731;27;46174;-72
2023/09/12 11:55:53;;;;;;;;;17.33;17.33;;;;;;;;5074069;28;45414;-72
2023/09/12 11:58:19;;;;;;;;;18.00;17.33;;;;;;;;5078502;28;45281;-74
2023/09/12 12:00:49;;;;;;;;;15.67;13.00;;;;;;;;5077731;28;45527;-73
2023/09/12 12:03:15;;;;;;;;;16.33;15.33;;;;;;;;5076825;28;45419;-72
2023/09/12 12:05:40;;;;;;;;;14.00;14.00;;;;;;;;5078112;27;45394;-73
2023/09/12 12:08:10;;;;;;;;;11.67;11.67;;;;;;;;5078019;27;45391;-74
2023/09/12 12:10:35;;;;;;;;;11.00;11.00;;;;;;;;5056387;28;46258;-73
2023/09/12 12:13:01;;;;;;;;;11.33;11.00;;;;;;;;5077543;28;45926;-73
2023/09/12 12:15:29;;;;;;;;;10.67;9.00;;;;;;;;5078212;27;45399;-73
2023/09/12 12:17:55;;;;;;;;;11.33;11.33;;;;;;;;5077839;28;45408;-73
2023/09/12 12:20:20;;;;;;;;;12.00;11.00;;;;;;;;5089824;27;46135;-74
2023/09/12 12:22:46;;;;;;;;;11.33;11.33;;;;;;;;5098683;27;45434;-74
2023/09/12 12:25:11;;;;;;;;;7.00;7.00;;;;;;;;5098398;27;45549;-73
2023/09/12 12:27:40;;;;;;;;;9.00;9.00;;;;;;;;5062743;27;45469;-73
2023/09/12 12:30:09;;;;;;;;;10.67;10.67;;;;;;;;5088271;27;45234;-72
2023/09/12 12:32:37;;;;;;;;;9.00;7.33;;;;;;;;5098125;27;45382;-74
2023/09/12 12:35:02;;;;;;;;;6.67;5.67;;;;;;;;5098333;27;45411;-73
2023/09/12 12:37:31;;;;;;;;;6.00;6.00;;;;;;;;5099473;27;45305;-73
2023/09/12 12:39:56;;;;;;;;;6.00;6.00;;;;;;;;5099187;27;45347;-73
2023/09/12 12:42:23;;;;;;;;;9.00;7.67;;;;;;;;5086674;27;46164;-73
2023/09/12 12:44:52;;;;;;;;;5.33;5.00;;;;;;;;5067304;28;45566;-73
2023/09/12 12:47:17;;;;;;;;;6.67;6.00;;;;;;;;5073903;28;45367;-72
2023/09/12 12:49:43;;;;;;;;;6.00;6.00;;;;;;;;5079582;28;45291;-73
2023/09/12 12:52:11;;;;;;;;;6.67;6.67;;;;;;;;5079527;28;45285;-73
2023/09/12 12:54:36;;;;;;;;;7.00;6.00;;;;;;;;5061378;28;45431;-74
2023/09/12 12:57:02;;;;;;;;;7.67;7.67;;;;;;;;5076070;28;45322;-73
2023/09/12 12:59:29;;;;;;;;;11.00;8.67;;;;;;;;5052319;28;46201;-73
2023/09/12 13:01:54;;;;;;;;;10.00;8.00;;;;;;;;5051125;28;47594;-72
2023/09/12 13:04:20;;;;;;;;;9.00;9.00;;;;;;;;5071530;28;45311;-72
2023/09/12 13:06:45;;;;;;;;;14.00;13.33;;;;;;;;5071547;28;45326;-74
2023/09/12 13:09:11;;;;;;;;;15.33;15.33;;;;;;;;5051429;28;47045;-73
2023/09/12 13:11:36;;;;;;;;;14.00;12.33;;;;;;;;5054003;28;47510;-73
2023/09/12 13:14:08;;;;;;;;;16.33;15.33;;;;;;;;5051927;28;46016;-73
2023/09/12 13:16:34;;;;;;;;;15.33;14.67;;;;;;;;5070601;28;45419;-74
2023/09/12 13:18:59;;;;;;;;;15.00;15.00;;;;;;;;5051133;28;47001;-74
2023/09/12 13:21:24;;;;;;;;;15.33;15.33;;;;;;;;5065949;28;45511;-73
2023/09/12 13:23:49;;;;;;;;;16.67;15.33;;;;;;;;5071532;28;45702;-75
2023/09/12 13:26:15;;;;;;;;;15.00;14.00;;;;;;;;5071559;28;45383;-74
2023/09/12 13:28:40;;;;;;;;;16.00;15.00;;;;;;;;5074934;27;45390;-73
2023/09/12 13:31:06;;;;;;;;;16.67;16.00;;;;;;;;5059710;28;48234;-74
2023/09/12 13:33:32;;;;;;;;;17.00;14.67;;;;;;;;5069563;28;45383;-75
2023/09/12 13:35:57;;;;;;;;;11.00;10.67;;;;;;;;5073265;28;45371;-74
2023/09/12 13:38:23;;;;;;;;;9.33;8.00;;;;;;;;5074782;28;45251;-74
2023/09/12 13:40:48;;;;;;;;;10.00;9.67;;;;;;;;5071796;28;45521;-74
2023/09/12 13:43:14;;;;;;;;;12.00;12.00;;;;;;;;5071153;28;45354;-75
2023/09/12 13:45:39;;;;;;;;;12.00;11.00;;;;;;;;5069834;28;45378;-74
2023/09/12 13:48:05;;;;;;;;;9.33;9.33;;;;;;;;5052295;28;46107;-74
2023/09/12 13:50:31;;;;;;;;;10.67;10.67;;;;;;;;5071178;28;46191;-75
2023/09/12 13:53:06;;;;;;;;;10.00;10.00;;;;;;;;5051408;28;45598;-75
2023/09/12 13:55:31;;;;;;;;;8.00;8.00;;;;;;;;5051282;28;45439;-74
2023/09/12 13:57:56;;;;;;;;;10.67;10.67;;;;;;;;5052416;28;47306;-75
2023/09/12 14:00:22;;;;;;;;;8.67;8.67;;;;;;;;5070451;28;45453;-75
2023/09/12 14:02:47;;;;;;;;;10.33;10.33;;;;;;;;5069558;28;45419;-74
2023/09/12 14:05:12;;;;;;;;;10.00;10.00;;;;;;;;5068419;28;45361;-75
2023/09/12 14:07:39;;;;;;;;;8.33;8.33;;;;;;;;5071057;28;45320;-74
2023/09/12 14:10:04;;;;;;;;;9.00;9.00;;;;;;;;5052451;28;47753;-74
2023/09/12 14:12:29;;;;;;;;;14.00;13.33;;;;;;;;5074354;28;45374;-75
2023/09/12 14:14:55;;;;;;;;;11.33;10.00;;;;;;;;5080882;28;45296;-74